Edgewater, Maryland
Current Conditions -  °F | °C
As of 9:54 PM on Friday 19 Dec 2014 (Local Time) from KNAK Reporting Station
Clear Clear  
Wind Chill: 30°   Ceiling: Unl
Heat Index: 35°   Visibility: 10mi
Dew Point: 23°   Wind: 6mph
Humidity: 61%   Direction: 290°WNW
Pressure: 30.25"   Gusts: NA
Location:  38.96°N, 76.55°W
Report Text: KNAK 200254Z AUTO 29005KT 10SM CLR 02/M05 A3025 RMK AO2 SLP244 T00171050 51018
Loading
Personal Weather Stations






























Interactive Weather Map New forecast layout! Learn more

10-Day Weather Forecast

Advertisements
Track Severe Weather on mobile